Time;durP1;ratioP1;P1;durP2;ratioP2;P2;SDS_P1;SDS_P2;PMS_P1;PMS_P2;Temp;Humidity;BMP_temperature;BMP_pressure;BME280_temperature;BME280_humidity;BME280_pressure;Samples;Min_cycle;Max_cycle;Signal;HPM_P1;HPM_P2
2021/08/22 00:00:09;;;;;;;;;;;;;;;24.72;63.28;100124.66;2070240;28;19917;-66
2021/08/22 00:01:09;;;;;;;;;;;;;;;24.73;63.58;100131.00;2066174;28;20031;-66
2021/08/22 00:02:09;;;;;;;;;;;;;;;24.73;63.64;100131.84;2065134;28;19921;-66
2021/08/22 00:03:09;;;;;;;;;;;;;;;24.71;63.50;100120.16;2061594;28;19936;-66
2021/08/22 00:04:10;;;;;;;;;;;;;;;24.73;63.46;100131.84;2060490;28;19940;-67
2021/08/22 00:05:10;;;;;;;;;;;;;;;24.74;63.59;100129.94;2073826;28;19908;-66
2021/08/22 00:06:11;;;;;;;;;;;;;;;24.72;63.44;100124.66;2069535;28;19987;-68
2021/08/22 00:07:11;;;;;;;;;;;;;;;24.72;63.34;100124.66;2074426;28;19921;-67
2021/08/22 00:08:12;;;;;;;;;;;;;;;24.72;63.47;100124.66;2068518;28;19928;-68
2021/08/22 00:09:12;;;;;;;;;;;;;;;24.73;63.46;100123.59;2056075;28;20662;-68
2021/08/22 00:10:12;;;;;;;;;;;;;;;24.73;63.58;100126.34;2058908;28;19926;-67
2021/08/22 00:11:13;;;;;;;;;;;;;;;24.74;63.38;100127.19;2057163;28;19925;-68
2021/08/22 00:12:13;;;;;;;;;;;;;;;24.73;63.33;100137.38;2053807;28;19921;-68
2021/08/22 00:13:14;;;;;;;;;;;;;;;24.74;63.43;100133.59;2058780;28;20383;-68
2021/08/22 00:14:14;;;;;;;;;;;;;;;24.74;63.53;100132.72;2057442;28;19918;-67
2021/08/22 00:15:15;;;;;;;;;;;;;;;24.75;63.40;100124.28;2062008;28;20289;-68
2021/08/22 00:16:15;;;;;;;;;;;;;;;24.76;63.59;100131.47;2055697;28;20334;-67
2021/08/22 00:17:16;;;;;;;;;;;;;;;24.76;63.59;100125.97;2056377;28;19909;-68
2021/08/22 00:18:16;;;;;;;;;;;;;;;24.76;63.50;100138.91;2057309;28;20915;-68
2021/08/22 00:19:16;;;;;;;;;;;;;;;24.74;63.39;100122.56;2059946;28;21012;-68
2021/08/22 00:20:20;;;;;;;;;;;;;;;24.75;63.36;100129.78;2057423;28;19921;-68
2021/08/22 00:21:20;;;;;;;;;;;;;;;24.73;63.28;100125.50;2058679;28;19926;-68
2021/08/22 00:22:21;;;;;;;;;;;;;;;24.73;63.49;100120.84;2056386;28;19924;-68
2021/08/22 00:23:21;;;;;;;;;;;;;;;24.71;63.40;100122.06;2054047;28;19952;-68
2021/08/22 00:24:22;;;;;;;;;;;;;;;24.69;63.25;100130.50;2053944;28;19957;-68
2021/08/22 00:25:22;;;;;;;;;;;;;;;24.71;62.96;100128.44;2054912;28;19979;-68
2021/08/22 00:26:22;;;;;;;;;;;;;;;24.71;63.13;100128.44;2056802;28;19922;-68
2021/08/22 00:27:22;;;;;;;;;;;;;;;24.70;62.85;100132.25;2053182;28;19967;-68
2021/08/22 00:28:23;;;;;;;;;;;;;;;24.71;62.86;100122.06;2056226;28;19925;-68
2021/08/22 00:29:23;;;;;;;;;;;;;;;24.70;62.94;100126.72;2056940;28;20749;-68
2021/08/22 00:30:23;;;;;;;;;;;;;;;24.68;62.96;100126.06;2052889;28;19918;-68
2021/08/22 00:31:24;;;;;;;;;;;;;;;24.68;62.99;100120.53;2055420;28;19921;-68
2021/08/22 00:32:24;;;;;;;;;;;;;;;24.67;62.72;100124.34;2059455;28;20334;-68
2021/08/22 00:33:24;;;;;;;;;;;;;;;24.66;62.85;100130.88;2054950;28;19921;-68
2021/08/22 00:34:25;;;;;;;;;;;;;;;24.66;62.75;100130.88;2057407;28;20008;-67
2021/08/22 00:35:25;;;;;;;;;;;;;;;24.66;62.83;100124.53;2057052;28;20008;-68
2021/08/22 00:36:25;;;;;;;;;;;;;;;24.65;62.75;100123.69;2058683;28;20114;-68
2021/08/22 00:37:26;;;;;;;;;;;;;;;24.64;62.80;100121.94;2059602;28;20008;-68
2021/08/22 00:38:27;;;;;;;;;;;;;;;24.64;62.97;100127.47;2057563;28;20013;-68
2021/08/22 00:39:27;;;;;;;;;;;;;;;24.64;63.05;100132.13;2057395;28;20673;-68
2021/08/22 00:40:28;;;;;;;;;;;;;;;24.64;62.85;100121.09;2059562;28;19921;-68
2021/08/22 00:41:29;;;;;;;;;;;;;;;24.63;62.93;100120.25;2060044;28;20325;-68
2021/08/22 00:42:31;;;;;;;;;;;;;;;24.63;62.93;100120.25;2058179;28;19921;-68
2021/08/22 00:43:32;;;;;;;;;;;;;;;24.62;62.96;100124.06;2054190;28;19928;-68
2021/08/22 00:44:32;;;;;;;;;;;;;;;24.62;62.98;100118.53;2059899;28;19922;-69
2021/08/22 00:45:33;;;;;;;;;;;;;;;24.62;63.00;100129.56;2055057;28;19921;-68
2021/08/22 00:46:36;;;;;;;;;;;;;;;24.62;62.99;100125.94;2068765;28;19928;-68
2021/08/22 00:47:38;;;;;;;;;;;;;;;24.62;62.91;100118.53;2067511;28;19921;-68
2021/08/22 00:48:40;;;;;;;;;;;;;;;24.63;63.09;100124.91;2061667;28;20015;-69
2021/08/22 00:49:40;;;;;;;;;;;;;;;24.62;62.98;100117.66;2060095;28;20704;-69
2021/08/22 00:50:41;;;;;;;;;;;;;;;24.63;62.97;100119.41;2056363;28;19921;-69
2021/08/22 00:51:41;;;;;;;;;;;;;;;24.62;62.93;100124.06;2052810;28;19921;-68
2021/08/22 00:52:41;;;;;;;;;;;;;;;24.62;62.98;100117.66;2056004;28;20281;-69
2021/08/22 00:53:42;;;;;;;;;;;;;;;24.60;63.04;100115.97;2052626;28;19972;-65
2021/08/22 00:54:42;;;;;;;;;;;;;;;24.60;63.16;100120.63;2054179;28;19921;-65
2021/08/22 00:55:43;;;;;;;;;;;;;;;24.59;63.09;100122.50;2056573;28;19921;-65
2021/08/22 00:56:43;;;;;;;;;;;;;;;24.60;63.01;100126.97;2056625;28;19983;-65
2021/08/22 00:57:43;;;;;;;;;;;;;;;24.61;63.10;100116.81;2059581;28;19921;-65
2021/08/22 00:58:44;;;;;;;;;;;;;;;24.60;63.02;100126.13;2057752;28;20023;-64
2021/08/22 00:59:44;;;;;;;;;;;;;;;24.60;63.14;100120.63;2059239;28;19921;-64
2021/08/22 01:00:47;;;;;;;;;;;;;;;24.61;62.98;100122.31;2065771;28;19913;-64
2021/08/22 01:01:52;;;;;;;;;;;;;;;24.60;62.99;100126.97;2071630;28;19928;-64
2021/08/22 01:02:58;;;;;;;;;;;;;;;24.60;63.07;100126.13;2052994;28;20031;-64
2021/08/22 01:04:06;;;;;;;;;;;;;;;24.61;63.00;100136.09;2056861;28;19910;-64
2021/08/22 01:05:12;;;;;;;;;;;;;;;24.60;63.14;100131.66;2051209;28;20003;-64
2021/08/22 01:06:21;;;;;;;;;;;;;;;24.60;62.94;100128.88;2058209;28;20542;-65
2021/08/22 01:07:30;;;;;;;;;;;;;;;24.60;62.95;100120.63;2055640;28;19921;-64
2021/08/22 01:08:33;;;;;;;;;;;;;;;24.59;62.96;100130.75;2054982;28;19976;-64
2021/08/22 01:09:39;;;;;;;;;;;;;;;24.59;63.03;100113.38;2057266;28;19952;-64
2021/08/22 01:10:41;;;;;;;;;;;;;;;24.59;62.96;100128.00;2055085;28;19921;-64
2021/08/22 01:11:43;;;;;;;;;;;;;;;24.59;63.02;100124.41;2056159;28;21421;-65
2021/08/22 01:12:52;;;;;;;;;;;;;;;24.58;62.96;100129.06;2055702;28;19960;-64
2021/08/22 01:13:57;;;;;;;;;;;;;;;24.59;62.87;100127.16;2060316;28;20202;-64
2021/08/22 01:15:02;;;;;;;;;;;;;;;24.59;63.00;100129.91;2057776;28;19932;-65
2021/08/22 01:16:06;;;;;;;;;;;;;;;24.59;63.02;100135.44;2056465;28;20384;-64
2021/08/22 01:17:06;;;;;;;;;;;;;;;24.58;62.97;100134.56;2067436;28;20065;-65
2021/08/22 01:18:11;;;;;;;;;;;;;;;24.58;62.98;100128.22;2068680;28;20217;-64
2021/08/22 01:19:18;;;;;;;;;;;;;;;24.59;62.96;100129.91;2054814;28;19921;-64
2021/08/22 01:20:22;;;;;;;;;;;;;;;24.59;62.92;100132.66;2052844;28;20009;-64
2021/08/22 01:21:22;;;;;;;;;;;;;;;24.58;63.09;100130.97;2064248;28;19944;-65
2021/08/22 01:22:24;;;;;;;;;;;;;;;24.58;62.83;100133.72;2062979;28;20355;-65
2021/08/22 01:23:25;;;;;;;;;;;;;;;24.58;62.78;100129.06;2060135;28;20289;-65
2021/08/22 01:24:25;;;;;;;;;;;;;;;24.59;62.85;100140.94;2057694;28;19917;-65
2021/08/22 01:25:26;;;;;;;;;;;;;;;24.59;63.05;100129.91;2058934;28;19917;-65
2021/08/22 01:26:31;;;;;;;;;;;;;;;24.59;62.82;100140.94;2059063;28;20020;-65
2021/08/22 01:27:32;;;;;;;;;;;;;;;24.58;62.88;100139.25;2058573;28;20024;-65
2021/08/22 01:28:34;;;;;;;;;;;;;;;24.58;62.90;100147.50;2054648;28;19922;-65
2021/08/22 01:29:39;;;;;;;;;;;;;;;24.57;62.80;100143.00;2058570;28;19921;-65
2021/08/22 01:30:41;;;;;;;;;;;;;;;24.58;62.77;100144.75;2060443;28;19964;-65
2021/08/22 01:31:46;;;;;;;;;;;;;;;24.57;62.90;100140.25;2061337;28;19913;-65
2021/08/22 01:32:48;;;;;;;;;;;;;;;24.57;62.81;100138.38;2057354;28;19964;-65
2021/08/22 01:33:49;;;;;;;;;;;;;;;24.57;62.98;100143.91;2057378;28;19921;-65
2021/08/22 01:34:49;;;;;;;;;;;;;;;24.57;62.76;100151.28;2054385;28;20016;-65
2021/08/22 01:35:50;;;;;;;;;;;;;;;24.57;62.79;100143.91;2059403;28;19921;-65
2021/08/22 01:36:50;;;;;;;;;;;;;;;24.57;62.80;100143.00;2055080;28;19922;-65
2021/08/22 01:37:51;;;;;;;;;;;;;;;24.57;62.78;100143.00;2058173;28;19968;-65
2021/08/22 01:38:53;;;;;;;;;;;;;;;24.57;62.85;100138.38;2059545;28;19978;-65
2021/08/22 01:39:54;;;;;;;;;;;;;;;24.57;62.97;100148.53;2075105;28;20176;-65
2021/08/22 01:40:55;;;;;;;;;;;;;;;24.57;62.95;100148.53;2069370;28;20299;-65
2021/08/22 01:41:55;;;;;;;;;;;;;;;24.57;63.03;100137.50;2067424;28;19928;-65
2021/08/22 01:42:56;;;;;;;;;;;;;;;24.56;62.80;100139.41;2071953;28;20690;-65
2021/08/22 01:43:57;;;;;;;;;;;;;;;24.57;62.92;100143.00;2056895;28;20240;-65
2021/08/22 01:45:09;;;;;;;;;;;;;;;24.56;62.99;100150.44;2059423;28;19921;-65
2021/08/22 01:46:10;;;;;;;;;;;;;;;24.56;63.03;100144.06;2058836;28;20061;-65
2021/08/22 01:47:10;;;;;;;;;;;;;;;24.55;62.85;100140.47;2071957;28;19924;-65
2021/08/22 01:48:13;;;;;;;;;;;;;;;24.56;62.89;100135.81;2077103;28;20054;-65
2021/08/22 01:49:14;;;;;;;;;;;;;;;24.55;62.96;100140.47;2061327;28;19924;-65
2021/08/22 01:50:18;;;;;;;;;;;;;;;24.56;62.76;100144.06;2061199;28;20360;-65
2021/08/22 01:51:20;;;;;;;;;;;;;;;24.56;62.85;100141.31;2059413;28;20300;-65
2021/08/22 01:52:21;;;;;;;;;;;;;;;24.55;62.75;100140.47;2056591;28;20012;-65
2021/08/22 01:53:21;;;;;;;;;;;;;;;24.55;62.99;100145.97;2061550;28;19928;-65
2021/08/22 01:54:21;;;;;;;;;;;;;;;24.55;62.76;100143.22;2078171;28;19922;-65
2021/08/22 01:55:22;;;;;;;;;;;;;;;24.55;62.92;100145.13;2072384;28;19921;-65
2021/08/22 01:56:23;;;;;;;;;;;;;;;24.55;62.88;100145.13;2059855;28;19945;-65
2021/08/22 01:57:23;;;;;;;;;;;;;;;24.55;62.80;100145.13;2067712;28;19956;-65
2021/08/22 01:58:25;;;;;;;;;;;;;;;24.55;62.85;100145.97;2056475;28;20068;-65
2021/08/22 01:59:25;;;;;;;;;;;;;;;24.55;62.78;100145.13;2059003;28;19917;-65
2021/08/22 02:00:26;;;;;;;;;;;;;;;24.55;62.78;100150.63;2056835;28;20870;-65
2021/08/22 02:01:26;;;;;;;;;;;;;;;24.55;62.91;100145.13;2060295;28;20320;-65
2021/08/22 02:02:26;;;;;;;;;;;;;;;24.55;62.81;100145.13;2060690;28;19944;-65
2021/08/22 02:03:27;;;;;;;;;;;;;;;24.54;62.90;100148.91;2057005;28;20028;-65
2021/08/22 02:04:40;;;;;;;;;;;;;;;24.55;62.77;100150.63;2060711;28;20669;-65
2021/08/22 02:05:40;;;;;;;;;;;;;;;24.54;62.83;100148.91;2057437;28;20119;-65
2021/08/22 02:06:47;;;;;;;;;;;;;;;24.54;62.77;100155.25;2057042;28;19965;-65
2021/08/22 02:07:48;;;;;;;;;;;;;;;24.54;62.85;100143.41;2060917;28;19968;-65
2021/08/22 02:08:50;;;;;;;;;;;;;;;24.54;62.79;100151.66;2058401;28;19932;-65
2021/08/22 02:09:59;;;;;;;;;;;;;;;24.55;62.88;100156.16;2054569;28;19967;-65
2021/08/22 02:11:19;;;;;;;;;;;;;;;24.55;62.73;100150.63;2062377;28;19921;-65
2021/08/22 02:12:20;;;;;;;;;;;;;;;24.53;62.84;100147.22;2058558;28;20573;-65
2021/08/22 02:13:22;;;;;;;;;;;;;;;24.54;62.72;100148.91;2061333;28;19922;-65
2021/08/22 02:14:24;;;;;;;;;;;;;;;24.53;62.90;100144.44;2057496;28;19921;-65
2021/08/22 02:15:29;;;;;;;;;;;;;;;24.54;62.86;100148.91;2055401;28;19921;-65
2021/08/22 02:16:31;;;;;;;;;;;;;;;24.54;62.82;100146.16;2060152;28;19922;-64
2021/08/22 02:17:34;;;;;;;;;;;;;;;24.53;62.62;100145.31;2053282;28;19991;-65
2021/08/22 02:18:36;;;;;;;;;;;;;;;24.53;62.80;100152.72;2053969;28;19914;-65
2021/08/22 02:19:37;;;;;;;;;;;;;;;24.52;62.95;100139.97;2055946;28;19918;-65
2021/08/22 02:20:39;;;;;;;;;;;;;;;24.53;62.76;100150.81;2058529;28;20218;-65
2021/08/22 02:21:39;;;;;;;;;;;;;;;24.52;62.84;100148.22;2068560;28;20518;-65
2021/08/22 02:22:42;;;;;;;;;;;;;;;24.51;62.67;100147.38;2074538;28;20355;-65
2021/08/22 02:23:43;;;;;;;;;;;;;;;24.52;62.73;100146.34;2076206;28;19913;-65
2021/08/22 02:24:43;;;;;;;;;;;;;;;24.51;62.88;100146.53;2061999;28;19951;-65
2021/08/22 02:25:44;;;;;;;;;;;;;;;24.52;62.87;100150.97;2062719;28;19921;-65
2021/08/22 02:26:45;;;;;;;;;;;;;;;24.51;62.78;100143.78;2057900;28;19961;-65
2021/08/22 02:27:45;;;;;;;;;;;;;;;24.52;62.88;100145.47;2060022;28;19914;-65
2021/08/22 02:28:58;;;;;;;;;;;;;;;24.52;62.84;100148.22;2060636;28;19917;-65
2021/08/22 02:29:58;;;;;;;;;;;;;;;24.52;62.77;100150.97;2056918;28;19926;-65
2021/08/22 02:30:59;;;;;;;;;;;;;;;24.52;62.72;100151.88;2058277;28;19932;-65
2021/08/22 02:31:59;;;;;;;;;;;;;;;24.52;62.66;100156.50;2060273;28;20024;-65
2021/08/22 02:33:00;;;;;;;;;;;;;;;24.52;62.79;100148.22;2057613;28;19921;-65
2021/08/22 02:34:00;;;;;;;;;;;;;;;24.51;62.92;100144.63;2075931;28;19928;-65
2021/08/22 02:35:00;;;;;;;;;;;;;;;24.51;62.84;100149.28;2072799;28;20530;-64
2021/08/22 02:36:01;;;;;;;;;;;;;;;24.51;62.67;100152.88;2058976;28;19925;-65
2021/08/22 02:37:01;;;;;;;;;;;;;;;24.51;62.88;100152.03;2059918;28;19921;-65
2021/08/22 02:38:02;;;;;;;;;;;;;;;24.51;62.73;100150.13;2055673;28;20012;-65
2021/08/22 02:39:02;;;;;;;;;;;;;;;24.50;62.70;100153.06;2057766;28;20688;-65
2021/08/22 02:40:03;;;;;;;;;;;;;;;24.51;62.63;100149.28;2058268;28;20312;-65
2021/08/22 02:41:03;;;;;;;;;;;;;;;24.52;62.77;100156.50;2054926;28;20573;-65
2021/08/22 02:42:04;;;;;;;;;;;;;;;24.51;62.75;100155.66;2059235;28;20439;-65
2021/08/22 02:43:04;;;;;;;;;;;;;;;24.51;62.67;100158.41;2056622;28;20574;-67
2021/08/22 02:44:05;;;;;;;;;;;;;;;24.51;62.72;100155.66;2058465;28;20208;-65
2021/08/22 02:45:06;;;;;;;;;;;;;;;24.52;62.64;100162.00;2058920;28;19961;-65
2021/08/22 02:46:07;;;;;;;;;;;;;;;24.50;62.64;100153.94;2056433;28;20163;-65
2021/08/22 02:47:07;;;;;;;;;;;;;;;24.51;62.62;100155.66;2058954;28;19921;-65
2021/08/22 02:48:07;;;;;;;;;;;;;;;24.51;62.59;100155.66;2058768;28;20510;-65
2021/08/22 02:49:08;;;;;;;;;;;;;;;24.51;62.72;100149.28;2076553;28;19932;-65
2021/08/22 02:50:08;;;;;;;;;;;;;;;24.51;62.63;100154.78;2071011;28;20362;-65
2021/08/22 02:51:08;;;;;;;;;;;;;;;24.51;62.62;100154.78;2055857;28;20097;-65
2021/08/22 02:52:09;;;;;;;;;;;;;;;24.50;62.64;100155.81;2058215;28;19997;-65
2021/08/22 02:53:10;;;;;;;;;;;;;;;24.50;62.73;100150.31;2056843;28;19925;-65
2021/08/22 02:54:10;;;;;;;;;;;;;;;24.51;62.49;100160.31;2059470;28;19920;-65
2021/08/22 02:55:10;;;;;;;;;;;;;;;24.51;62.74;100163.06;2055686;28;20572;-65
2021/08/22 02:56:11;;;;;;;;;;;;;;;24.50;62.69;100153.94;2053854;28;19957;-65
2021/08/22 02:57:11;;;;;;;;;;;;;;;24.50;62.74;100158.56;2060952;28;19922;-65
2021/08/22 02:58:11;;;;;;;;;;;;;;;24.50;62.71;100159.47;2056137;28;19968;-65
2021/08/22 02:59:12;;;;;;;;;;;;;;;24.50;62.59;100158.56;2057286;28;20411;-65
2021/08/22 03:00:12;;;;;;;;;;;;;;;24.50;62.77;100156.69;2054798;28;19929;-65
2021/08/22 03:01:12;;;;;;;;;;;;;;;24.49;62.71;100160.47;2054239;28;19968;-65
2021/08/22 03:02:13;;;;;;;;;;;;;;;24.50;62.65;100158.56;2059367;28;19927;-65
2021/08/22 03:03:13;;;;;;;;;;;;;;;24.50;62.74;100155.81;2072898;28;19985;-65
2021/08/22 03:04:14;;;;;;;;;;;;;;;24.51;62.74;100158.41;2079156;28;19919;-65
2021/08/22 03:05:14;;;;;;;;;;;;;;;24.50;62.63;100151.19;2055116;28;20020;-65
2021/08/22 03:06:14;;;;;;;;;;;;;;;24.50;62.58;100147.56;2054879;28;19928;-65
2021/08/22 03:07:14;;;;;;;;;;;;;;;24.50;62.56;100158.56;2060506;28;19968;-65
2021/08/22 03:08:17;;;;;;;;;;;;;;;24.49;62.64;100149.44;2052450;28;19929;-65
2021/08/22 03:09:18;;;;;;;;;;;;;;;24.50;62.80;100158.56;2060503;28;19926;-66
2021/08/22 03:10:18;;;;;;;;;;;;;;;24.49;62.79;100154.97;2058561;28;20399;-66
2021/08/22 03:11:19;;;;;;;;;;;;;;;24.49;62.74;100145.84;2056927;28;19933;-65
2021/08/22 03:12:19;;;;;;;;;;;;;;;24.50;62.65;100147.56;2058860;28;19921;-65
2021/08/22 03:13:19;;;;;;;;;;;;;;;24.49;62.76;100152.22;2060844;28;19922;-65
2021/08/22 03:14:19;;;;;;;;;;;;;;;24.49;62.71;100151.34;2057298;28;20163;-65
2021/08/22 03:15:20;;;;;;;;;;;;;;;24.49;62.76;100148.59;2060863;28;20061;-65
2021/08/22 03:16:20;;;;;;;;;;;;;;;24.49;62.71;100154.13;2055960;28;19914;-65
2021/08/22 03:17:20;;;;;;;;;;;;;;;24.49;62.75;100143.09;2055266;28;20016;-65
2021/08/22 03:18:20;;;;;;;;;;;;;;;24.49;62.58;100151.34;2055311;28;19922;-65
2021/08/22 03:19:21;;;;;;;;;;;;;;;24.48;62.68;100142.25;2056858;28;19924;-65
2021/08/22 03:20:21;;;;;;;;;;;;;;;24.49;62.72;100145.84;2059918;28;19979;-65
2021/08/22 03:21:22;;;;;;;;;;;;;;;24.49;62.51;100148.59;2059236;28;20244;-65
2021/08/22 03:22:23;;;;;;;;;;;;;;;24.48;62.57;100147.75;2058507;28;19929;-65
2021/08/22 03:23:23;;;;;;;;;;;;;;;24.47;62.72;100143.25;2058492;28;19918;-65
2021/08/22 03:24:24;;;;;;;;;;;;;;;24.48;62.63;100145.00;2058918;28;19920;-65
2021/08/22 03:25:24;;;;;;;;;;;;;;;24.48;62.58;100139.50;2059590;28;19910;-65
2021/08/22 03:26:24;;;;;;;;;;;;;;;24.48;62.60;100144.16;2057356;28;19913;-65
2021/08/22 03:27:25;;;;;;;;;;;;;;;24.49;62.67;100140.34;2059621;28;19932;-65
2021/08/22 03:28:27;;;;;;;;;;;;;;;24.48;62.63;100141.41;2057257;28;20428;-65
2021/08/22 03:29:27;;;;;;;;;;;;;;;24.49;62.53;100143.09;2057636;28;19921;-65
2021/08/22 03:30:27;;;;;;;;;;;;;;;24.49;62.65;100148.59;2055384;28;19961;-64
2021/08/22 03:31:27;;;;;;;;;;;;;;;24.48;62.72;100136.72;2054772;28;19921;-65
2021/08/22 03:32:28;;;;;;;;;;;;;;;24.48;62.56;100144.16;2064855;28;20416;-65
2021/08/22 03:33:28;;;;;;;;;;;;;;;24.48;62.62;100139.50;2060018;28;19926;-65
2021/08/22 03:34:29;;;;;;;;;;;;;;;24.48;62.48;100145.00;2055835;28;20193;-65
2021/08/22 03:35:29;;;;;;;;;;;;;;;24.48;62.63;100146.91;2057412;28;19921;-65
2021/08/22 03:36:29;;;;;;;;;;;;;;;24.48;62.60;100146.91;2055748;28;19936;-65
2021/08/22 03:37:30;;;;;;;;;;;;;;;24.48;62.73;100150.50;2058294;28;19929;-65
2021/08/22 03:38:30;;;;;;;;;;;;;;;24.47;62.55;100143.25;2056178;28;19918;-65
2021/08/22 03:39:30;;;;;;;;;;;;;;;24.48;62.51;100145.00;2057835;28;19929;-65
2021/08/22 03:40:31;;;;;;;;;;;;;;;24.48;62.81;100141.41;2057800;28;19910;-65
2021/08/22 03:41:33;;;;;;;;;;;;;;;24.47;62.55;100148.78;2059683;28;20507;-65
2021/08/22 03:42:33;;;;;;;;;;;;;;;24.48;62.53;100146.91;2059222;28;20294;-65
2021/08/22 03:43:33;;;;;;;;;;;;;;;24.48;62.59;100145.00;2058867;28;20031;-65
2021/08/22 03:44:34;;;;;;;;;;;;;;;24.48;62.58;100149.66;2059407;28;19913;-65
2021/08/22 03:45:34;;;;;;;;;;;;;;;24.48;62.67;100149.66;2057001;28;19917;-65
2021/08/22 03:46:35;;;;;;;;;;;;;;;24.47;62.72;100154.28;2060499;28;20719;-65
2021/08/22 03:47:35;;;;;;;;;;;;;;;24.48;62.83;100149.66;2058663;28;19921;-65
2021/08/22 03:48:35;;;;;;;;;;;;;;;24.47;62.53;100147.94;2058386;28;19921;-65
2021/08/22 03:49:36;;;;;;;;;;;;;;;24.48;62.60;100149.66;2055701;28;20330;-65
2021/08/22 03:50:36;;;;;;;;;;;;;;;24.48;62.52;100144.16;2055427;28;20534;-65
2021/08/22 03:51:36;;;;;;;;;;;;;;;24.47;62.42;100146.03;2062051;28;19929;-65
2021/08/22 03:52:37;;;;;;;;;;;;;;;24.48;62.66;100149.66;2071250;28;19963;-65
2021/08/22 03:53:37;;;;;;;;;;;;;;;24.47;62.44;100147.94;2071001;28;20387;-69
2021/08/22 03:54:37;;;;;;;;;;;;;;;24.48;62.54;100149.66;2060121;28;20388;-68
2021/08/22 03:55:38;;;;;;;;;;;;;;;24.47;62.68;100145.16;2057778;28;20307;-68
2021/08/22 03:56:38;;;;;;;;;;;;;;;24.47;62.73;100142.41;2059797;28;19975;-69
2021/08/22 03:57:38;;;;;;;;;;;;;;;24.46;62.67;100152.59;2056099;28;19922;-68
2021/08/22 03:58:39;;;;;;;;;;;;;;;24.47;62.66;100147.94;2058480;28;19975;-68
2021/08/22 03:59:39;;;;;;;;;;;;;;;24.47;62.52;100148.78;2057215;28;19918;-69
2021/08/22 04:00:39;;;;;;;;;;;;;;;24.48;62.63;100152.41;2055429;28;19964;-68
2021/08/22 04:01:39;;;;;;;;;;;;;;;24.47;62.61;100150.69;2055098;28;20389;-68
2021/08/22 04:02:40;;;;;;;;;;;;;;;24.47;62.69;100153.44;2076025;28;19998;-68
2021/08/22 04:03:40;;;;;;;;;;;;;;;24.46;62.71;100151.72;2070189;28;19921;-68
2021/08/22 04:04:41;;;;;;;;;;;;;;;24.46;62.77;100158.09;2059250;28;19929;-68
2021/08/22 04:05:41;;;;;;;;;;;;;;;24.47;62.61;100153.44;2060003;28;19928;-68
2021/08/22 04:06:48;;;;;;;;;;;;;;;24.46;62.67;100158.09;2066342;28;20016;-68
2021/08/22 04:07:49;;;;;;;;;;;;;;;24.45;62.61;100149.97;2063966;28;19925;-68
2021/08/22 04:08:49;;;;;;;;;;;;;;;24.46;62.70;100152.59;2054043;28;19922;-69
2021/08/22 04:09:50;;;;;;;;;;;;;;;24.46;62.74;100151.72;2056003;28;20414;-69
2021/08/22 04:10:51;;;;;;;;;;;;;;;24.45;62.68;100156.38;2060863;28;19917;-68
2021/08/22 04:11:54;;;;;;;;;;;;;;;24.45;62.60;100148.09;2073775;28;20000;-68
2021/08/22 04:12:55;;;;;;;;;;;;;;;24.45;62.64;100149.97;2074422;28;19920;-68
2021/08/22 04:13:55;;;;;;;;;;;;;;;24.46;62.74;100154.50;2059418;28;19928;-68
2021/08/22 04:14:55;;;;;;;;;;;;;;;24.46;62.69;100148.97;2057052;28;19921;-68
2021/08/22 04:15:56;;;;;;;;;;;;;;;24.44;62.64;100149.13;2058605;28;20311;-68
2021/08/22 04:16:56;;;;;;;;;;;;;;;24.46;62.58;100151.72;2059357;28;20128;-69
2021/08/22 04:17:56;;;;;;;;;;;;;;;24.44;62.54;100154.63;2059020;28;19917;-68
2021/08/22 04:18:57;;;;;;;;;;;;;;;24.47;62.69;100156.19;2054073;28;19914;-68
2021/08/22 04:19:57;;;;;;;;;;;;;;;24.45;62.68;100150.84;2060254;28;19922;-69
2021/08/22 04:20:57;;;;;;;;;;;;;;;24.46;62.70;100162.75;2054472;28;19922;-68
2021/08/22 04:21:58;;;;;;;;;;;;;;;24.45;62.63;100155.47;2059694;28;19932;-68
2021/08/22 04:22:58;;;;;;;;;;;;;;;24.45;62.71;100150.84;2059476;28;19913;-68
2021/08/22 04:23:58;;;;;;;;;;;;;;;24.45;62.60;100155.47;2056539;28;19991;-68
2021/08/22 04:24:59;;;;;;;;;;;;;;;24.45;62.65;100155.47;2059360;28;20027;-68
2021/08/22 04:25:59;;;;;;;;;;;;;;;24.45;62.60;100155.47;2060474;28;19921;-68
2021/08/22 04:26:59;;;;;;;;;;;;;;;24.45;62.56;100158.25;2055544;28;19926;-68
2021/08/22 04:28:00;;;;;;;;;;;;;;;24.45;62.73;100163.75;2056928;28;19921;-69
2021/08/22 04:29:00;;;;;;;;;;;;;;;24.44;62.64;100159.28;2061489;28;19917;-68
2021/08/22 04:30:01;;;;;;;;;;;;;;;24.44;62.57;100160.13;2058460;28;19956;-68
2021/08/22 04:31:02;;;;;;;;;;;;;;;24.44;62.59;100162.91;2054013;28;20016;-68
2021/08/22 04:32:02;;;;;;;;;;;;;;;24.45;62.55;100161.00;2059582;28;19922;-68
2021/08/22 04:33:03;;;;;;;;;;;;;;;24.45;62.65;100161.00;2047985;28;19922;-68
2021/08/22 04:34:03;;;;;;;;;;;;;;;24.44;62.54;100156.53;2057529;28;20274;-69
2021/08/22 04:35:04;;;;;;;;;;;;;;;24.44;62.65;100160.13;2060184;28;20400;-69
2021/08/22 04:36:05;;;;;;;;;;;;;;;24.44;62.73;100162.03;2059062;28;19921;-68
2021/08/22 04:37:06;;;;;;;;;;;;;;;24.45;62.56;100161.00;2073506;28;20478;-68
2021/08/22 04:38:06;;;;;;;;;;;;;;;24.44;62.65;100159.28;2075470;28;19925;-68
2021/08/22 04:39:06;;;;;;;;;;;;;;;24.45;62.62;100161.00;2060785;28;19921;-69
2021/08/22 04:40:07;;;;;;;;;;;;;;;24.44;62.54;100162.03;2059945;28;20376;-68
2021/08/22 04:41:07;;;;;;;;;;;;;;;24.43;62.61;100163.94;2058069;28;19977;-68
2021/08/22 04:42:07;;;;;;;;;;;;;;;24.43;62.57;100171.38;2055501;28;19921;-69
2021/08/22 04:43:08;;;;;;;;;;;;;;;24.44;62.54;100171.16;2054249;28;19926;-68
2021/08/22 04:44:08;;;;;;;;;;;;;;;24.44;62.55;100173.06;2057488;28;20664;-68
2021/08/22 04:45:08;;;;;;;;;;;;;;;24.45;62.56;100180.28;2055211;28;19922;-69
2021/08/22 04:46:09;;;;;;;;;;;;;;;24.44;62.65;100181.34;2058178;28;20028;-68
2021/08/22 04:47:09;;;;;;;;;;;;;;;24.43;62.52;100174.97;2059668;28;19925;-69
2021/08/22 04:48:09;;;;;;;;;;;;;;;24.43;62.73;100174.97;2060778;28;19928;-68
2021/08/22 04:49:09;;;;;;;;;;;;;;;24.43;62.69;100174.13;2056010;28;19921;-68
2021/08/22 04:50:10;;;;;;;;;;;;;;;24.43;62.69;100179.63;2055661;28;19921;-69
2021/08/22 04:51:10;;;;;;;;;;;;;;;24.42;62.57;100178.75;2053186;28;20381;-68
2021/08/22 04:52:10;;;;;;;;;;;;;;;24.43;62.66;100179.63;2055334;28;20348;-69
2021/08/22 04:53:11;;;;;;;;;;;;;;;24.43;62.58;100177.72;2058819;28;19963;-68
2021/08/22 04:54:11;;;;;;;;;;;;;;;24.43;62.65;100180.47;2058031;28;19952;-68
2021/08/22 04:55:11;;;;;;;;;;;;;;;24.43;62.70;100180.47;2058378;28;19921;-68
2021/08/22 04:56:12;;;;;;;;;;;;;;;24.43;62.59;100185.13;2060625;28;19921;-69
2021/08/22 04:57:12;;;;;;;;;;;;;;;24.43;62.63;100179.63;2055135;28;20385;-67
2021/08/22 04:58:12;;;;;;;;;;;;;;;24.42;62.59;100189.78;2057259;28;19928;-68
2021/08/22 04:59:13;;;;;;;;;;;;;;;24.43;62.64;100185.13;2055363;28;19922;-68
2021/08/22 05:00:13;;;;;;;;;;;;;;;24.43;62.70;100179.63;2053540;28;20379;-68
2021/08/22 05:01:14;;;;;;;;;;;;;;;24.43;62.63;100180.47;2052705;28;19948;-67
2021/08/22 05:02:14;;;;;;;;;;;;;;;24.43;62.57;100185.13;2055689;28;19922;-68
2021/08/22 05:03:14;;;;;;;;;;;;;;;24.42;62.56;100181.50;2067098;28;19963;-68
2021/08/22 05:04:14;;;;;;;;;;;;;;;24.42;62.48;100188.91;2066578;28;20392;-68
2021/08/22 05:05:15;;;;;;;;;;;;;;;24.42;62.70;100189.78;2055917;28;19921;-68
2021/08/22 05:06:15;;;;;;;;;;;;;;;24.42;62.45;100189.78;2053838;28;19947;-68
2021/08/22 05:07:15;;;;;;;;;;;;;;;24.42;62.49;100183.41;2058380;28;19921;-68
2021/08/22 05:08:17;;;;;;;;;;;;;;;24.42;62.62;100188.91;2058415;28;19943;-68
2021/08/22 05:09:18;;;;;;;;;;;;;;;24.42;62.64;100188.91;2060335;28;20385;-67
2021/08/22 05:10:18;;;;;;;;;;;;;;;24.42;62.54;100188.91;2056628;28;20660;-68
2021/08/22 05:11:18;;;;;;;;;;;;;;;24.43;62.55;100187.91;2052697;28;20585;-68
2021/08/22 05:12:19;;;;;;;;;;;;;;;24.42;62.58;100195.28;2056718;28;19925;-68
2021/08/22 05:13:19;;;;;;;;;;;;;;;24.42;62.55;100200.78;2072177;28;20039;-68